Istanbul, Turkey
Current Conditions -  °F | °C
As of 4:50 PM on Wednesday 22 Oct 2014 (Local Time) from LTBA Reporting Station
Few Clouds Few Clouds  
Wind Chill: 68°   Ceiling: Unl
Heat Index: 68°   Visibility: 6mi
Dew Point: 54°   Wind: 8mph
Humidity: 60%   Direction: 250°WSW
Pressure: 29.77"   Gusts: NA
Location:  41.01°N, 28.95°E
Report Text: LTBA 221350Z 25007KT 9999 FEW030 20/12 Q1008 NOSIG
Loading
Personal Weather Stations






























Interactive Weather Map
Tropical Storm Tracking
New forecast layout! Learn more

10-Day Weather Forecast

Advertisements
Track Severe Weather on mobile